Caledonia, Minnesota
Current Conditions -  °F | °C
As of 8:53 PM on Monday 22 Dec 2014 (Local Time) from KLSE Reporting Station
Haze Haze  
Wind Chill: 28°   Ceiling: 1300
Heat Index: 36°   Visibility: 6mi
Dew Point: 33°   Wind: 13mph
Humidity: 89%   Direction: 80°E
Pressure: 29.6"   Gusts: NA
Location:  43.63°N, 91.5°W
Report Text: KLSE 230253Z 08011KT 6SM BR BKN013 OVC027 02/01 A2960 RMK AO2 SLP033 60002 T00220006 58005
Loading
Personal Weather Stations






























Interactive Weather Map New forecast layout! Learn more

10-Day Weather Forecast

Advertisements
Track Severe Weather on mobile